createdAt,value
2023-01-30T00:01:01.948Z,20.23
2023-01-30T00:03:32.024Z,18.50
2023-01-30T00:06:01.306Z,21.10
2023-01-30T00:08:31.047Z,21.88
2023-01-30T00:11:06.331Z,18.92
2023-01-30T00:13:37.766Z,20.30
2023-01-30T00:18:37.682Z,23.48
2023-01-30T00:21:09.315Z,19.60
2023-01-30T00:23:39.921Z,23.17
2023-01-30T00:26:09.955Z,20.80
2023-01-30T00:28:41.555Z,19.58
2023-01-30T00:31:11.343Z,18.80
2023-01-30T00:33:42.014Z,19.07
2023-01-30T00:36:12.502Z,20.35
2023-01-30T00:41:13.456Z,18.48
2023-01-30T00:44:01.853Z,18.50
2023-01-30T00:46:49.944Z,22.23
2023-01-30T00:49:20.383Z,19.13
2023-01-30T00:51:50.012Z,19.77
2023-01-30T00:54:19.795Z,23.52
2023-01-30T00:56:49.089Z,20.70
2023-01-30T00:59:20.274Z,20.40
2023-01-30T01:01:49.800Z,21.30
2023-01-30T01:04:19.611Z,20.67
2023-01-30T01:06:48.935Z,18.75
2023-01-30T01:09:19.049Z,20.45
2023-01-30T01:11:48.341Z,20.05
2023-01-30T01:14:18.042Z,20.40
2023-01-30T01:16:48.990Z,19.85
2023-01-30T01:19:18.968Z,17.55
2023-01-30T01:21:48.402Z,20.75
2023-01-30T01:24:18.601Z,15.85
2023-01-30T01:26:47.971Z,18.90
2023-01-30T01:29:19.249Z,19.70
2023-01-30T01:31:49.978Z,20.65
2023-01-30T01:36:54.044Z,18.50
2023-01-30T01:39:25.016Z,17.38
2023-01-30T01:41:53.264Z,16.48
2023-01-30T01:44:22.907Z,15.05
2023-01-30T01:46:57.164Z,17.77
2023-01-30T01:49:31.009Z,18.05
2023-01-30T01:52:05.521Z,16.88
2023-01-30T01:54:39.769Z,20.35
2023-01-30T01:57:14.688Z,15.73
2023-01-30T01:59:50.558Z,17.67
2023-01-30T02:02:22.488Z,27.00
2023-01-30T02:05:07.091Z,19.50
2023-01-30T02:07:39.744Z,21.85
2023-01-30T02:10:12.831Z,20.10
2023-01-30T02:12:43.240Z,22.85
2023-01-30T02:15:13.520Z,21.08
2023-01-30T02:17:44.274Z,21.33
2023-01-30T02:20:24.986Z,20.75
2023-01-30T02:23:26.812Z,19.17
2023-01-30T02:26:26.941Z,24.83
2023-01-30T02:29:42.254Z,20.20
2023-01-30T02:32:22.792Z,24.17
2023-01-30T02:35:01.685Z,20.55
2023-01-30T02:37:45.849Z,21.67
2023-01-30T02:40:26.526Z,23.38
2023-01-30T02:43:06.272Z,25.42
2023-01-30T02:45:40.511Z,21.35
2023-01-30T02:48:14.691Z,23.20
2023-01-30T02:50:48.898Z,23.30
2023-01-30T02:53:19.224Z,18.35
2023-01-30T02:55:48.534Z,21.67
2023-01-30T02:58:21.662Z,22.77
2023-01-30T03:01:23.040Z,24.55
2023-01-30T03:04:27.701Z,20.63
2023-01-30T03:07:14.009Z,20.40
2023-01-30T03:09:51.149Z,17.60
2023-01-30T03:12:29.049Z,21.73
2023-01-30T03:15:05.002Z,16.63
2023-01-30T03:17:36.826Z,16.13
2023-01-30T03:20:07.389Z,14.75
2023-01-30T03:22:38.272Z,16.17
2023-01-30T03:25:10.413Z,15.40
2023-01-30T03:27:41.006Z,16.67
2023-01-30T03:30:12.198Z,15.40
2023-01-30T03:32:41.521Z,14.75
2023-01-30T03:35:11.611Z,14.30
2023-01-30T03:37:42.682Z,13.35
2023-01-30T03:40:14.924Z,12.50
2023-01-30T03:42:44.796Z,15.38
2023-01-30T03:45:14.822Z,11.98
2023-01-30T03:47:44.266Z,11.48
2023-01-30T03:50:14.023Z,10.25
2023-01-30T03:52:44.786Z,9.48
2023-01-30T03:55:14.767Z,10.30
2023-01-30T03:57:44.261Z,8.07
2023-01-30T04:00:14.870Z,9.50
2023-01-30T04:02:44.304Z,10.23
2023-01-30T04:05:14.329Z,8.60
2023-01-30T04:07:45.063Z,8.65
2023-01-30T04:10:15.837Z,10.23
2023-01-30T04:12:45.186Z,7.93
2023-01-30T04:15:15.054Z,7.82
2023-01-30T04:17:45.297Z,10.70
2023-01-30T04:20:15.140Z,8.70
2023-01-30T04:22:45.963Z,10.30
2023-01-30T04:25:16.313Z,7.47
2023-01-30T04:27:46.124Z,9.82
2023-01-30T04:30:17.138Z,10.53
2023-01-30T04:32:46.438Z,9.70
2023-01-30T04:35:16.733Z,8.57
2023-01-30T04:37:47.590Z,6.85
2023-01-30T04:42:46.428Z,7.85
2023-01-30T04:45:16.372Z,6.63
2023-01-30T04:47:46.459Z,7.13
2023-01-30T04:50:16.280Z,7.32
2023-01-30T04:52:47.083Z,6.10
2023-01-30T04:55:17.202Z,5.93
2023-01-30T04:57:46.792Z,6.00
2023-01-30T05:00:18.372Z,6.80
2023-01-30T05:02:47.620Z,9.00
2023-01-30T05:05:17.765Z,6.68
2023-01-30T05:07:48.695Z,7.15
2023-01-30T05:10:19.211Z,6.07
2023-01-30T05:12:48.851Z,7.23
2023-01-30T05:15:19.064Z,6.32
2023-01-30T05:17:48.603Z,7.50
2023-01-30T05:20:18.516Z,6.13
2023-01-30T05:22:49.297Z,6.55
2023-01-30T05:25:19.642Z,6.22
2023-01-30T05:27:49.077Z,5.32
2023-01-30T05:30:19.386Z,5.18
2023-01-30T05:32:48.718Z,5.03
2023-01-30T05:35:18.892Z,5.57
2023-01-30T05:37:53.934Z,5.93
2023-01-30T05:40:23.630Z,4.47
2023-01-30T05:42:53.158Z,6.30
2023-01-30T05:45:23.003Z,5.47
2023-01-30T05:47:58.490Z,5.30
2023-01-30T05:50:30.438Z,4.55
2023-01-30T05:53:01.185Z,4.85
2023-01-30T05:57:59.807Z,7.28
2023-01-30T06:00:29.931Z,3.90
2023-01-30T06:02:59.503Z,7.68
2023-01-30T06:05:29.324Z,7.05
2023-01-30T06:07:58.752Z,7.90
2023-01-30T06:10:29.973Z,4.72
2023-01-30T06:12:59.300Z,6.70
2023-01-30T06:15:29.969Z,3.63
2023-01-30T06:17:59.240Z,5.63
2023-01-30T06:20:29.009Z,4.65
2023-01-30T06:22:59.496Z,4.95
2023-01-30T06:25:30.790Z,10.00
2023-01-30T06:28:00.252Z,3.97
2023-01-30T06:30:30.065Z,3.67
2023-01-30T06:32:59.405Z,4.63
2023-01-30T06:35:29.367Z,3.08
2023-01-30T06:37:58.733Z,3.40
2023-01-30T06:40:30.049Z,2.72
2023-01-30T06:42:59.358Z,3.00
2023-01-30T06:45:29.026Z,4.00
2023-01-30T06:47:58.747Z,2.70
2023-01-30T06:50:30.517Z,2.33
2023-01-30T06:55:31.001Z,1.88
2023-01-30T06:58:04.340Z,2.45
2023-01-30T07:00:34.454Z,2.35
2023-01-30T07:03:03.999Z,2.63
2023-01-30T07:05:34.109Z,2.17
2023-01-30T07:08:03.622Z,2.83
2023-01-30T07:10:36.111Z,1.80
2023-01-30T07:13:06.121Z,1.92
2023-01-30T07:15:35.797Z,3.33
2023-01-30T07:18:05.345Z,1.65
2023-01-30T07:20:35.365Z,2.13
2023-01-30T07:23:04.871Z,2.28
2023-01-30T07:25:36.548Z,2.45
2023-01-30T07:28:06.297Z,2.72
2023-01-30T07:30:37.524Z,2.43
2023-01-30T07:33:08.716Z,2.33
2023-01-30T07:35:39.609Z,3.90
2023-01-30T07:38:08.903Z,2.85
2023-01-30T07:40:40.150Z,3.90
2023-01-30T07:43:11.711Z,4.30
2023-01-30T07:45:43.346Z,5.03
2023-01-30T07:48:14.155Z,2.17
2023-01-30T07:50:44.098Z,2.13
2023-01-30T07:53:15.023Z,3.00
2023-01-30T07:55:46.476Z,3.78
2023-01-30T08:00:47.002Z,3.75
2023-01-30T08:03:18.233Z,3.23
2023-01-30T08:05:48.413Z,4.13
2023-01-30T08:08:18.016Z,3.03
2023-01-30T08:10:50.985Z,4.65
2023-01-30T08:13:20.440Z,4.25
2023-01-30T08:15:50.561Z,2.42
2023-01-30T08:18:19.875Z,2.33
2023-01-30T08:20:49.511Z,2.65
2023-01-30T08:23:18.841Z,3.47
2023-01-30T08:25:50.112Z,2.78
2023-01-30T08:28:19.386Z,4.25
2023-01-30T08:30:49.555Z,3.95
2023-01-30T08:33:18.978Z,3.35
2023-01-30T08:35:48.603Z,4.03
2023-01-30T08:38:18.558Z,5.55
2023-01-30T08:40:49.660Z,3.50
2023-01-30T08:43:18.955Z,5.93
2023-01-30T08:45:48.794Z,5.22
2023-01-30T08:48:18.192Z,6.75
2023-01-30T08:50:47.973Z,7.82
2023-01-30T08:53:17.283Z,7.25
2023-01-30T08:55:47.386Z,10.52
2023-01-30T08:58:18.366Z,3.83
2023-01-30T09:00:48.836Z,8.65
2023-01-30T09:03:20.416Z,6.37
2023-01-30T09:05:55.523Z,7.65
2023-01-30T09:08:24.902Z,5.38
2023-01-30T09:10:54.631Z,5.72
2023-01-30T09:13:25.558Z,4.97
2023-01-30T09:15:55.476Z,5.32
2023-01-30T09:18:24.772Z,5.90
2023-01-30T09:20:54.563Z,6.00
2023-01-30T09:23:24.156Z,4.10
2023-01-30T09:25:53.822Z,7.93
2023-01-30T09:28:24.670Z,7.18
2023-01-30T09:30:54.639Z,7.18
2023-01-30T09:33:23.923Z,8.02
2023-01-30T09:35:53.882Z,8.75
2023-01-30T09:38:23.216Z,7.03
2023-01-30T09:41:06.034Z,8.33
2023-01-30T09:44:01.408Z,10.38
2023-01-30T09:46:44.207Z,8.13
2023-01-30T09:49:28.096Z,9.43
2023-01-30T09:52:06.184Z,8.40
2023-01-30T09:54:39.459Z,8.95
2023-01-30T09:57:21.870Z,10.43
2023-01-30T09:59:59.359Z,9.93
2023-01-30T10:02:46.272Z,10.75
2023-01-30T10:05:16.243Z,43.78
2023-01-30T10:08:05.243Z,15.27
2023-01-30T10:10:55.089Z,5.70
2023-01-30T10:13:51.131Z,7.75
2023-01-30T10:16:28.947Z,6.72
2023-01-30T10:19:33.616Z,7.35
2023-01-30T10:22:11.178Z,7.13
2023-01-30T10:24:53.844Z,6.82
2023-01-30T10:27:24.651Z,7.03
2023-01-30T10:29:57.665Z,6.70
2023-01-30T10:32:32.450Z,12.38
2023-01-30T10:35:08.107Z,7.47
2023-01-30T10:37:44.268Z,10.80
2023-01-30T10:40:22.257Z,8.80
2023-01-30T10:42:57.031Z,8.05
2023-01-30T10:45:39.897Z,13.48
2023-01-30T10:48:43.036Z,7.38
2023-01-30T10:51:25.323Z,9.30
2023-01-30T10:54:00.439Z,8.13
2023-01-30T10:56:37.391Z,12.23
2023-01-30T10:59:22.511Z,7.28
2023-01-30T11:02:05.523Z,12.65
2023-01-30T11:04:40.846Z,11.80
2023-01-30T11:07:11.533Z,11.00
2023-01-30T11:09:43.152Z,7.10
2023-01-30T11:12:15.563Z,8.38
2023-01-30T11:14:56.678Z,12.35
2023-01-30T11:17:33.855Z,8.70
2023-01-30T11:20:16.739Z,12.95
2023-01-30T11:22:51.581Z,11.25
2023-01-30T11:25:23.134Z,11.10
2023-01-30T11:27:57.803Z,15.48
2023-01-30T11:30:30.450Z,12.35
2023-01-30T11:33:14.539Z,8.60
2023-01-30T11:35:54.656Z,11.52
2023-01-30T11:38:26.468Z,12.90
2023-01-30T11:41:17.894Z,12.50
2023-01-30T11:43:48.691Z,16.65
2023-01-30T11:46:20.824Z,15.20
2023-01-30T11:49:02.667Z,16.80
2023-01-30T11:51:49.203Z,11.68
2023-01-30T11:54:22.210Z,8.38
2023-01-30T11:56:54.538Z,14.25
2023-01-30T11:59:29.292Z,15.07
2023-01-30T12:02:07.286Z,13.35
2023-01-30T12:04:37.046Z,12.07
2023-01-30T12:07:10.647Z,8.27
2023-01-30T12:09:42.066Z,8.27
2023-01-30T12:15:12.702Z,6.57
2023-01-30T12:20:19.728Z,8.32
2023-01-30T12:23:01.938Z,12.00
2023-01-30T12:25:40.450Z,13.60
2023-01-30T12:28:16.596Z,9.75
2023-01-30T12:30:52.394Z,11.60
2023-01-30T12:33:21.887Z,19.00
2023-01-30T12:36:11.058Z,17.65
2023-01-30T12:39:06.468Z,8.75
2023-01-30T12:41:58.808Z,8.60
2023-01-30T12:44:45.909Z,15.98
2023-01-30T12:47:44.709Z,14.20
2023-01-30T12:50:30.804Z,15.25
2023-01-30T12:53:31.764Z,10.25
2023-01-30T12:56:26.743Z,13.77
2023-01-30T12:59:04.642Z,9.20
2023-01-30T13:01:45.900Z,9.02
2023-01-30T13:04:26.561Z,11.30
2023-01-30T13:07:06.953Z,12.23
2023-01-30T13:09:51.419Z,17.83
2023-01-30T13:12:31.349Z,14.82
2023-01-30T13:15:08.670Z,8.80
2023-01-30T13:17:58.130Z,15.45
2023-01-30T13:20:54.125Z,15.20
2023-01-30T13:23:32.979Z,10.23
2023-01-30T13:26:06.971Z,14.60
2023-01-30T13:28:40.382Z,17.38
2023-01-30T13:31:13.355Z,12.43
2023-01-30T13:33:44.759Z,7.63
2023-01-30T13:36:19.775Z,13.10
2023-01-30T13:39:00.127Z,6.45
2023-01-30T13:41:35.569Z,5.07
2023-01-30T13:44:15.479Z,12.73
2023-01-30T13:46:46.215Z,7.32
2023-01-30T13:49:25.192Z,9.00
2023-01-30T13:52:01.624Z,10.27
2023-01-30T13:54:50.379Z,11.75
2023-01-30T13:57:32.038Z,6.28
2023-01-30T14:00:31.331Z,11.02
2023-01-30T14:03:31.829Z,12.93
2023-01-30T14:06:48.896Z,7.00
2023-01-30T14:09:22.883Z,8.25
2023-01-30T14:11:59.062Z,8.35
2023-01-30T14:14:36.898Z,10.80
2023-01-30T14:17:17.812Z,13.02
2023-01-30T14:19:59.699Z,11.82
2023-01-30T14:22:36.347Z,18.60
2023-01-30T14:25:45.090Z,10.85
2023-01-30T14:28:54.982Z,8.35
2023-01-30T14:31:56.150Z,9.55
2023-01-30T14:35:14.384Z,6.10
2023-01-30T14:37:51.358Z,12.18
2023-01-30T14:40:42.187Z,11.23
2023-01-30T14:46:29.827Z,9.38
2023-01-30T14:49:07.066Z,12.43
2023-01-30T14:51:43.820Z,7.82
2023-01-30T14:54:33.343Z,7.68
2023-01-30T14:57:20.467Z,11.00
2023-01-30T15:00:12.126Z,10.68
2023-01-30T15:02:48.642Z,8.38
2023-01-30T15:05:21.701Z,7.68
2023-01-30T15:07:55.188Z,10.27
2023-01-30T15:10:42.992Z,14.82
2023-01-30T15:13:50.841Z,14.00
2023-01-30T15:16:38.489Z,12.05
2023-01-30T15:19:25.308Z,10.50
2023-01-30T15:22:07.372Z,11.20
2023-01-30T15:25:02.999Z,11.52
2023-01-30T15:27:40.663Z,13.00
2023-01-30T15:30:23.033Z,5.43
2023-01-30T15:33:10.770Z,9.35
2023-01-30T15:35:42.872Z,6.05
2023-01-30T15:38:28.260Z,4.47
2023-01-30T15:41:00.981Z,11.27
2023-01-30T15:43:57.420Z,11.55
2023-01-30T15:46:35.051Z,12.13
2023-01-30T15:49:25.727Z,8.15
2023-01-30T15:51:57.425Z,8.57
2023-01-30T15:54:27.311Z,9.02
2023-01-30T15:57:00.390Z,10.15
2023-01-30T15:59:36.266Z,7.47
2023-01-30T16:02:10.249Z,5.03
2023-01-30T16:04:40.482Z,6.28
2023-01-30T16:07:25.507Z,15.32
2023-01-30T16:10:07.407Z,8.88
2023-01-30T16:12:41.170Z,12.85
2023-01-30T16:15:30.116Z,8.30
2023-01-30T16:18:05.634Z,8.32
2023-01-30T16:20:58.959Z,11.60
2023-01-30T16:23:33.397Z,7.10
2023-01-30T16:26:04.912Z,7.32
2023-01-30T16:28:34.915Z,10.18
2023-01-30T16:31:09.141Z,6.38
2023-01-30T16:33:39.425Z,9.35
2023-01-30T16:36:34.490Z,12.35
2023-01-30T16:39:03.872Z,12.55
2023-01-30T16:41:38.000Z,6.80
2023-01-30T16:44:18.870Z,5.63
2023-01-30T16:46:55.461Z,5.88
2023-01-30T16:49:29.364Z,6.30
2023-01-30T16:52:04.265Z,10.45
2023-01-30T16:54:35.435Z,8.13
2023-01-30T16:57:06.199Z,7.75
2023-01-30T16:59:38.125Z,9.00
2023-01-30T17:02:09.856Z,9.95
2023-01-30T17:04:41.559Z,10.60
2023-01-30T17:07:34.729Z,8.63
2023-01-30T17:10:04.244Z,9.38
2023-01-30T17:12:39.981Z,8.60
2023-01-30T17:15:33.229Z,11.30
2023-01-30T17:18:04.990Z,15.18
2023-01-30T17:20:45.760Z,8.70
2023-01-30T17:25:50.343Z,7.05
2023-01-30T17:28:24.543Z,12.30
2023-01-30T17:30:53.931Z,4.18
2023-01-30T17:33:26.830Z,10.05
2023-01-30T17:35:56.085Z,10.82
2023-01-30T17:38:25.796Z,8.45
2023-01-30T17:40:55.077Z,6.95
2023-01-30T17:43:25.645Z,6.03
2023-01-30T17:45:56.801Z,6.47
2023-01-30T17:48:28.680Z,7.30
2023-01-30T17:50:58.500Z,6.57
2023-01-30T17:53:28.147Z,8.63
2023-01-30T17:55:57.711Z,5.38
2023-01-30T17:58:30.498Z,4.53
2023-01-30T18:01:00.123Z,7.13
2023-01-30T18:03:32.167Z,10.35
2023-01-30T18:06:01.565Z,7.07
2023-01-30T18:08:32.987Z,9.25
2023-01-30T18:13:31.843Z,8.05
2023-01-30T18:16:01.594Z,9.77
2023-01-30T18:18:33.438Z,15.98
2023-01-30T18:21:02.790Z,10.00
2023-01-30T18:23:34.917Z,9.32
2023-01-30T18:26:04.399Z,11.32
2023-01-30T18:28:34.308Z,7.90
2023-01-30T18:31:03.728Z,13.65
2023-01-30T18:33:35.833Z,12.75
2023-01-30T18:36:06.970Z,7.38
2023-01-30T18:38:36.638Z,7.85
2023-01-30T18:41:09.963Z,6.93
2023-01-30T18:43:42.763Z,6.40
2023-01-30T18:46:14.709Z,8.20
2023-01-30T18:48:46.974Z,13.02
2023-01-30T18:51:19.677Z,9.23
2023-01-30T18:53:51.047Z,8.30
2023-01-30T18:58:53.105Z,7.03
2023-01-30T19:01:24.375Z,21.33
2023-01-30T19:03:58.249Z,16.70
2023-01-30T19:06:28.422Z,17.98
2023-01-30T19:08:58.891Z,14.65
2023-01-30T19:11:45.591Z,13.50
2023-01-30T19:14:16.851Z,10.18
2023-01-30T19:16:46.840Z,6.10
2023-01-30T19:19:18.731Z,11.82
2023-01-30T19:21:49.992Z,14.88
2023-01-30T19:24:20.162Z,9.20
2023-01-30T19:26:49.972Z,12.73
2023-01-30T19:29:20.605Z,14.77
2023-01-30T19:31:50.545Z,9.90
2023-01-30T19:34:21.940Z,6.45
2023-01-30T19:39:23.090Z,11.20
2023-01-30T19:41:52.418Z,16.13
2023-01-30T19:44:22.274Z,10.73
2023-01-30T19:46:52.291Z,5.68
2023-01-30T19:49:23.791Z,12.15
2023-01-30T19:51:53.314Z,14.23
2023-01-30T19:54:23.387Z,13.35
2023-01-30T19:56:52.985Z,7.80
2023-01-30T19:59:23.704Z,8.60
2023-01-30T20:01:53.079Z,9.85
2023-01-30T20:04:24.808Z,10.88
2023-01-30T20:06:54.540Z,14.38
2023-01-30T20:09:25.777Z,7.22
2023-01-30T20:11:55.175Z,17.92
2023-01-30T20:14:25.320Z,15.60
2023-01-30T20:16:54.629Z,11.38
2023-01-30T20:19:27.032Z,10.23
2023-01-30T20:24:26.324Z,12.05
2023-01-30T20:26:55.717Z,13.32
2023-01-30T20:29:26.904Z,15.02
2023-01-30T20:31:56.208Z,9.68
2023-01-30T20:34:28.035Z,6.28
2023-01-30T20:36:57.494Z,17.02
2023-01-30T20:39:27.274Z,13.77
2023-01-30T20:41:57.218Z,11.88
2023-01-30T20:44:27.884Z,7.88
2023-01-30T20:46:57.549Z,15.50
2023-01-30T20:49:29.138Z,11.77
2023-01-30T20:51:58.552Z,9.10
2023-01-30T20:54:28.362Z,15.60
2023-01-30T20:56:58.669Z,9.10
2023-01-30T20:59:28.886Z,8.57
2023-01-30T21:01:58.437Z,9.82
2023-01-30T21:04:30.022Z,11.98
2023-01-30T21:09:28.949Z,14.10
2023-01-30T21:11:58.305Z,10.73
2023-01-30T21:14:28.326Z,12.60
2023-01-30T21:16:58.062Z,12.25
2023-01-30T21:19:30.046Z,21.03
2023-01-30T21:21:59.731Z,11.85
2023-01-30T21:24:30.415Z,16.45
2023-01-30T21:27:00.500Z,13.57
2023-01-30T21:29:31.164Z,13.70
2023-01-30T21:32:00.695Z,8.80
2023-01-30T21:34:33.485Z,16.85
2023-01-30T21:37:22.932Z,9.43
2023-01-30T21:40:09.901Z,12.30
2023-01-30T21:42:56.410Z,11.98
2023-01-30T21:45:26.178Z,8.98
2023-01-30T21:47:55.676Z,11.35
2023-01-30T21:50:29.057Z,12.40
2023-01-30T21:52:58.304Z,14.65
2023-01-30T21:55:28.036Z,7.10
2023-01-30T21:57:57.370Z,11.02
2023-01-30T22:00:27.630Z,11.65
2023-01-30T22:02:56.930Z,20.15
2023-01-30T22:05:36.778Z,15.48
2023-01-30T22:08:06.566Z,22.77
2023-01-30T22:10:36.386Z,11.25
2023-01-30T22:13:05.887Z,10.82
2023-01-30T22:15:36.156Z,12.10
2023-01-30T22:18:05.666Z,8.52
2023-01-30T22:20:37.853Z,19.70
2023-01-30T22:23:07.124Z,6.68
2023-01-30T22:25:37.288Z,11.75
2023-01-30T22:28:08.773Z,11.48
2023-01-30T22:30:39.861Z,18.88
2023-01-30T22:33:09.194Z,9.65
2023-01-30T22:35:40.602Z,16.25
2023-01-30T22:40:39.721Z,9.85
2023-01-30T22:43:09.244Z,7.60
2023-01-30T22:45:39.100Z,13.45
2023-01-30T22:48:08.727Z,10.77
2023-01-30T22:50:40.262Z,15.23
2023-01-30T22:53:09.754Z,15.35
2023-01-30T22:55:39.385Z,16.40
2023-01-30T22:58:08.732Z,18.95
2023-01-30T23:00:39.436Z,10.60
2023-01-30T23:03:08.850Z,13.73
2023-01-30T23:05:40.362Z,9.52
2023-01-30T23:10:41.415Z,10.32
2023-01-30T23:13:15.526Z,8.98
2023-01-30T23:15:46.969Z,10.30
2023-01-30T23:18:33.604Z,14.68
2023-01-30T23:21:05.210Z,19.02
2023-01-30T23:23:34.474Z,15.52
2023-01-30T23:26:04.307Z,12.90
2023-01-30T23:28:33.817Z,11.25
2023-01-30T23:31:07.916Z,13.85
2023-01-30T23:33:37.711Z,11.82
2023-01-30T23:36:10.668Z,10.93
2023-01-30T23:38:40.227Z,8.38
2023-01-30T23:41:12.384Z,11.48
2023-01-30T23:43:43.058Z,16.50
2023-01-30T23:48:43.819Z,12.43
2023-01-30T23:51:16.156Z,18.25
2023-01-30T23:53:46.379Z,13.35
2023-01-30T23:56:17.434Z,12.43
2023-01-30T23:58:47.405Z,9.95
